createdAt,value
2018-03-27T00:00:32.834Z,9.03
2018-03-27T00:01:38.244Z,8.63
2018-03-27T00:02:43.106Z,8.20
2018-03-27T00:03:47.865Z,8.83
2018-03-27T00:04:52.130Z,9.80
2018-03-27T00:05:56.335Z,9.10
2018-03-27T00:07:00.587Z,9.30
2018-03-27T00:08:06.935Z,8.57
2018-03-27T00:09:11.872Z,9.23
2018-03-27T00:10:18.077Z,9.57
2018-03-27T00:11:22.282Z,10.30
2018-03-27T00:12:26.504Z,9.07
2018-03-27T00:13:30.691Z,9.23
2018-03-27T00:14:38.313Z,9.53
2018-03-27T00:15:43.630Z,8.70
2018-03-27T00:16:48.324Z,9.63
2018-03-27T00:17:52.601Z,8.70
2018-03-27T00:18:56.809Z,10.17
2018-03-27T00:20:00.996Z,9.00
2018-03-27T00:21:06.457Z,9.77
2018-03-27T00:22:12.966Z,10.30
2018-03-27T00:23:18.265Z,9.90
2018-03-27T00:24:22.543Z,9.47
2018-03-27T00:25:26.879Z,10.47
2018-03-27T00:26:31.174Z,9.63
2018-03-27T00:27:53.659Z,10.13
2018-03-27T00:29:17.389Z,9.60
2018-03-27T00:30:39.952Z,10.13
2018-03-27T00:32:04.252Z,9.20
2018-03-27T00:33:26.459Z,9.17
2018-03-27T00:34:48.445Z,9.80
2018-03-27T00:36:10.807Z,8.93
2018-03-27T00:37:34.137Z,9.07
2018-03-27T00:38:57.376Z,8.70
2018-03-27T00:40:20.063Z,9.37
2018-03-27T00:43:27.988Z,9.03
2018-03-27T00:44:33.379Z,9.93
2018-03-27T00:45:38.891Z,9.70
2018-03-27T00:46:43.963Z,10.67
2018-03-27T00:47:48.668Z,9.80
2018-03-27T00:48:53.657Z,10.50
2018-03-27T00:49:57.902Z,9.83
2018-03-27T00:51:02.909Z,9.97
2018-03-27T00:52:09.368Z,9.90
2018-03-27T00:53:15.620Z,10.30
2018-03-27T00:54:20.251Z,11.20
2018-03-27T00:55:24.848Z,10.23
2018-03-27T00:56:29.053Z,11.10
2018-03-27T00:57:33.721Z,10.90
2018-03-27T00:58:39.930Z,10.00
2018-03-27T00:59:44.919Z,11.20
2018-03-27T01:00:50.195Z,11.70
2018-03-27T01:01:54.406Z,11.40
2018-03-27T01:02:58.594Z,11.93
2018-03-27T01:04:03.608Z,13.07
2018-03-27T01:05:10.272Z,12.30
2018-03-27T01:06:15.977Z,12.97
2018-03-27T01:07:20.390Z,12.70
2018-03-27T01:08:24.620Z,13.90
2018-03-27T01:09:28.819Z,14.57
2018-03-27T01:10:34.983Z,12.90
2018-03-27T01:11:40.369Z,14.50
2018-03-27T01:12:47.414Z,14.80
2018-03-27T01:13:51.751Z,14.57
2018-03-27T01:14:56.705Z,15.30
2018-03-27T01:16:00.982Z,15.20
2018-03-27T01:17:07.479Z,16.50
2018-03-27T01:18:13.142Z,14.40
2018-03-27T01:19:18.338Z,15.50
2018-03-27T01:20:23.348Z,16.77
2018-03-27T01:21:27.604Z,15.70
2018-03-27T01:22:32.482Z,16.53
2018-03-27T01:23:39.811Z,16.40
2018-03-27T01:24:44.831Z,15.97
2018-03-27T01:25:50.720Z,15.80
2018-03-27T01:26:54.941Z,17.20
2018-03-27T01:27:59.152Z,18.10
2018-03-27T01:29:04.214Z,15.00
2018-03-27T01:30:11.908Z,16.60
2018-03-27T01:31:17.434Z,16.93
2018-03-27T01:32:21.709Z,19.30
2018-03-27T01:33:25.912Z,16.93
2018-03-27T01:34:30.128Z,18.10
2018-03-27T01:35:36.365Z,17.90
2018-03-27T01:36:43.655Z,18.33
2018-03-27T01:37:48.607Z,18.23
2018-03-27T01:38:52.804Z,18.57
2018-03-27T01:39:57.004Z,18.07
2018-03-27T01:41:01.245Z,17.77
2018-03-27T01:42:08.348Z,18.40
2018-03-27T01:43:13.216Z,17.80
2018-03-27T01:44:18.245Z,17.97
2018-03-27T01:45:22.858Z,17.73
2018-03-27T01:46:27.046Z,16.67
2018-03-27T01:47:32.696Z,18.43
2018-03-27T01:48:38.796Z,17.60
2018-03-27T01:49:44.375Z,19.30
2018-03-27T01:50:49.402Z,16.50
2018-03-27T01:51:54.399Z,18.00
2018-03-27T01:52:58.657Z,17.80
2018-03-27T01:54:06.653Z,18.97
2018-03-27T01:55:12.677Z,18.30
2018-03-27T01:56:18.382Z,18.80
2018-03-27T01:57:22.595Z,17.07
2018-03-27T01:58:26.996Z,18.60
2018-03-27T01:59:32.671Z,17.77
2018-03-27T02:00:38.731Z,17.80
2018-03-27T02:01:44.286Z,17.80
2018-03-27T02:02:49.224Z,17.17
2018-03-27T02:03:53.464Z,19.13
2018-03-27T02:04:58.450Z,17.70
2018-03-27T02:06:03.377Z,17.70
2018-03-27T02:07:09.769Z,18.50
2018-03-27T02:08:15.808Z,17.73
2018-03-27T02:09:21.028Z,19.33
2018-03-27T02:10:25.360Z,18.43
2018-03-27T02:11:36.820Z,19.87
2018-03-27T02:12:48.484Z,20.60
2018-03-27T02:13:58.185Z,23.70
2018-03-27T02:15:08.996Z,23.07
2018-03-27T02:16:18.862Z,21.10
2018-03-27T02:17:29.512Z,20.00
2018-03-27T02:18:40.145Z,20.57
2018-03-27T02:19:50.911Z,22.00
2018-03-27T02:21:00.962Z,20.57
2018-03-27T02:22:06.668Z,20.43
2018-03-27T02:24:52.512Z,22.67
2018-03-27T02:25:56.731Z,19.57
2018-03-27T02:27:01.313Z,21.57
2018-03-27T02:28:08.633Z,23.20
2018-03-27T02:29:14.837Z,20.70
2018-03-27T02:30:20.465Z,21.27
2018-03-27T02:31:24.691Z,21.13
2018-03-27T02:32:28.957Z,22.73
2018-03-27T02:33:33.085Z,23.40
2018-03-27T02:34:41.265Z,21.90
2018-03-27T02:35:48.160Z,21.30
2018-03-27T02:36:52.432Z,23.60
2018-03-27T02:37:57.396Z,22.03
2018-03-27T02:39:01.729Z,22.83
2018-03-27T02:40:09.575Z,20.93
2018-03-27T02:41:15.207Z,23.07
2018-03-27T02:42:20.586Z,22.30
2018-03-27T02:43:24.857Z,21.70
2018-03-27T02:44:29.824Z,23.00
2018-03-27T02:45:36.685Z,22.53
2018-03-27T02:46:42.403Z,21.70
2018-03-27T02:47:47.999Z,22.37
2018-03-27T02:48:52.253Z,22.93
2018-03-27T02:49:57.249Z,21.80
2018-03-27T02:51:02.685Z,22.13
2018-03-27T02:52:10.262Z,21.97
2018-03-27T02:53:16.251Z,24.03
2018-03-27T02:54:21.019Z,22.23
2018-03-27T02:55:25.227Z,22.43
2018-03-27T02:56:29.468Z,22.13
2018-03-27T02:57:36.971Z,22.57
2018-03-27T02:58:42.584Z,21.93
2018-03-27T02:59:48.251Z,22.53
2018-03-27T03:00:52.474Z,22.17
2018-03-27T03:01:57.160Z,20.83
2018-03-27T03:03:03.061Z,21.53
2018-03-27T03:04:10.285Z,21.87
2018-03-27T03:05:16.527Z,20.87
2018-03-27T03:06:21.079Z,20.50
2018-03-27T03:07:25.368Z,23.20
2018-03-27T03:08:29.563Z,22.47
2018-03-27T03:09:37.930Z,23.07
2018-03-27T03:10:44.515Z,24.87
2018-03-27T03:11:49.336Z,23.23
2018-03-27T03:12:53.583Z,21.60
2018-03-27T03:13:57.797Z,23.80
2018-03-27T03:15:02.541Z,23.90
2018-03-27T03:16:09.191Z,23.33
2018-03-27T03:17:15.441Z,24.33
2018-03-27T03:18:20.865Z,21.90
2018-03-27T03:19:25.863Z,22.03
2018-03-27T03:20:30.048Z,23.57
2018-03-27T03:21:35.338Z,22.20
2018-03-27T03:22:41.178Z,22.30
2018-03-27T03:23:47.443Z,21.90
2018-03-27T03:24:51.830Z,22.30
2018-03-27T03:25:56.033Z,24.40
2018-03-27T03:27:00.232Z,24.07
2018-03-27T03:28:06.811Z,25.47
2018-03-27T03:29:13.920Z,25.53
2018-03-27T03:30:19.469Z,26.33
2018-03-27T03:31:24.434Z,26.40
2018-03-27T03:32:28.632Z,26.90
2018-03-27T03:33:34.418Z,27.00
2018-03-27T03:34:40.960Z,26.77
2018-03-27T03:35:46.806Z,25.80
2018-03-27T03:36:51.364Z,26.40
2018-03-27T03:37:55.569Z,25.97
2018-03-27T03:38:59.781Z,29.20
2018-03-27T03:40:07.701Z,26.27
2018-03-27T03:41:14.671Z,28.40
2018-03-27T03:42:19.926Z,28.27
2018-03-27T03:43:24.343Z,28.67
2018-03-27T03:44:29.315Z,29.10
2018-03-27T03:45:36.162Z,27.17
2018-03-27T03:46:43.402Z,27.10
2018-03-27T03:47:48.717Z,25.53
2018-03-27T03:48:52.905Z,27.63
2018-03-27T03:49:57.103Z,27.77
2018-03-27T03:51:01.436Z,29.70
2018-03-27T03:52:08.704Z,28.73
2018-03-27T03:53:15.993Z,30.60
2018-03-27T03:54:20.608Z,30.13
2018-03-27T03:55:24.823Z,29.80
2018-03-27T03:56:29.010Z,30.20
2018-03-27T03:57:38.962Z,30.80
2018-03-27T03:58:47.056Z,32.07
2018-03-27T03:59:51.389Z,31.87
2018-03-27T04:00:55.593Z,32.60
2018-03-27T04:01:59.806Z,33.70
2018-03-27T04:03:10.228Z,33.67
2018-03-27T04:04:16.171Z,33.60
2018-03-27T04:05:20.648Z,35.40
2018-03-27T04:06:24.860Z,36.33
2018-03-27T04:07:29.060Z,37.27
2018-03-27T04:08:35.144Z,38.57
2018-03-27T04:09:42.847Z,37.33
2018-03-27T04:10:47.932Z,36.90
2018-03-27T04:11:52.143Z,35.63
2018-03-27T04:12:56.412Z,33.07
2018-03-27T04:14:00.664Z,32.30
2018-03-27T04:15:08.762Z,32.40
2018-03-27T04:16:14.843Z,32.57
2018-03-27T04:17:19.644Z,33.97
2018-03-27T04:18:23.908Z,30.20
2018-03-27T04:19:28.120Z,29.97
2018-03-27T04:20:33.682Z,31.17
2018-03-27T04:21:41.666Z,31.17
2018-03-27T04:22:46.671Z,30.63
2018-03-27T04:23:51.028Z,29.83
2018-03-27T04:24:56.015Z,30.60
2018-03-27T04:26:00.244Z,32.27
2018-03-27T04:27:08.397Z,31.70
2018-03-27T04:28:14.306Z,31.57
2018-03-27T04:29:20.930Z,33.07
2018-03-27T04:30:25.184Z,31.20
2018-03-27T04:31:29.392Z,31.50
2018-03-27T04:32:37.344Z,32.53
2018-03-27T04:33:42.707Z,32.70
2018-03-27T04:34:47.988Z,32.40
2018-03-27T04:35:52.662Z,35.27
2018-03-27T04:36:56.867Z,34.80
2018-03-27T04:38:01.057Z,37.03
2018-03-27T04:39:10.337Z,41.00
2018-03-27T04:40:17.620Z,40.77
2018-03-27T04:41:21.984Z,45.17
2018-03-27T04:42:26.178Z,45.30
2018-03-27T04:43:31.165Z,42.67
2018-03-27T04:44:39.844Z,44.40
2018-03-27T04:45:45.129Z,43.33
2018-03-27T04:46:51.239Z,45.33
2018-03-27T04:47:55.821Z,45.87
2018-03-27T04:49:00.801Z,45.77
2018-03-27T04:50:09.025Z,48.90
2018-03-27T04:51:13.918Z,49.03
2018-03-27T04:52:18.746Z,48.27
2018-03-27T04:53:23.058Z,43.80
2018-03-27T04:54:27.257Z,43.73
2018-03-27T04:55:31.607Z,43.50
2018-03-27T04:56:40.007Z,42.90
2018-03-27T04:57:45.340Z,45.17
2018-03-27T04:58:49.976Z,42.53
2018-03-27T04:59:54.561Z,44.80
2018-03-27T05:00:58.770Z,44.33
2018-03-27T05:02:04.088Z,44.77
2018-03-27T05:03:10.356Z,46.77
2018-03-27T05:04:16.263Z,47.17
2018-03-27T05:05:21.027Z,49.93
2018-03-27T05:06:25.238Z,51.07
2018-03-27T05:07:30.232Z,49.43
2018-03-27T05:08:36.566Z,48.00
2018-03-27T05:09:44.062Z,48.40
2018-03-27T05:10:49.971Z,47.40
2018-03-27T05:11:54.206Z,45.60
2018-03-27T05:12:58.452Z,48.33
2018-03-27T05:14:04.894Z,54.53
2018-03-27T05:15:12.368Z,52.30
2018-03-27T05:16:17.858Z,51.30
2018-03-27T05:17:22.096Z,49.00
2018-03-27T05:18:26.339Z,54.13
2018-03-27T05:19:30.577Z,50.67
2018-03-27T05:20:37.555Z,61.27
2018-03-27T05:21:44.525Z,59.23
2018-03-27T05:22:49.908Z,58.97
2018-03-27T05:23:54.152Z,59.30
2018-03-27T05:24:58.376Z,56.43
2018-03-27T05:26:03.217Z,56.80
2018-03-27T05:27:10.624Z,57.07
2018-03-27T05:28:16.704Z,53.17
2018-03-27T05:29:22.478Z,55.57
2018-03-27T05:30:26.751Z,55.40
2018-03-27T05:31:31.795Z,58.67
2018-03-27T05:32:40.025Z,61.53
2018-03-27T05:33:45.269Z,56.03
2018-03-27T05:34:50.507Z,53.97
2018-03-27T05:35:55.112Z,56.53
2018-03-27T05:36:59.336Z,57.07
2018-03-27T05:38:04.462Z,59.30
2018-03-27T05:39:13.641Z,59.40
2018-03-27T05:40:19.715Z,56.87
2018-03-27T05:41:23.971Z,61.83
2018-03-27T05:42:28.182Z,60.30
2018-03-27T05:43:33.612Z,62.47
2018-03-27T05:44:40.048Z,59.13
2018-03-27T05:45:45.595Z,62.47
2018-03-27T05:46:50.905Z,62.63
2018-03-27T05:47:55.125Z,59.03
2018-03-27T05:48:59.324Z,59.50
2018-03-27T05:50:06.959Z,62.83
2018-03-27T05:51:13.083Z,57.70
2018-03-27T05:52:19.339Z,58.43
2018-03-27T05:53:23.548Z,61.30
2018-03-27T05:54:27.757Z,63.17
2018-03-27T05:55:34.233Z,59.43
2018-03-27T05:56:41.404Z,56.83
2018-03-27T05:57:47.296Z,63.97
2018-03-27T05:58:51.632Z,58.97
2018-03-27T05:59:55.855Z,58.50
2018-03-27T06:01:00.839Z,60.10
2018-03-27T06:02:07.583Z,60.10
2018-03-27T06:03:14.908Z,57.20
2018-03-27T06:04:20.976Z,56.33
2018-03-27T06:05:25.255Z,56.17
2018-03-27T06:06:29.469Z,55.30
2018-03-27T06:07:35.246Z,56.53
2018-03-27T06:08:41.867Z,54.40
2018-03-27T06:09:48.156Z,55.60
2018-03-27T06:10:52.387Z,54.93
2018-03-27T06:11:56.615Z,53.57
2018-03-27T06:13:01.578Z,51.80
2018-03-27T06:14:08.981Z,54.57
2018-03-27T06:15:15.733Z,53.43
2018-03-27T06:16:20.378Z,56.83
2018-03-27T06:17:24.593Z,58.27
2018-03-27T06:18:29.204Z,56.40
2018-03-27T06:19:35.632Z,54.10
2018-03-27T06:20:41.108Z,58.33
2018-03-27T06:21:46.451Z,60.70
2018-03-27T06:22:51.006Z,60.27
2018-03-27T06:23:56.037Z,59.30
2018-03-27T06:25:00.301Z,56.90
2018-03-27T06:26:08.617Z,56.83
2018-03-27T06:27:14.910Z,59.00
2018-03-27T06:28:20.032Z,57.70
2018-03-27T06:29:25.095Z,53.77
2018-03-27T06:30:30.062Z,55.20
2018-03-27T06:31:37.344Z,57.07
2018-03-27T06:32:42.360Z,59.10
2018-03-27T06:33:48.712Z,55.03
2018-03-27T06:34:52.961Z,52.63
2018-03-27T06:35:57.173Z,56.50
2018-03-27T06:37:01.841Z,54.40
2018-03-27T06:38:07.303Z,57.27
2018-03-27T06:39:13.935Z,55.07
2018-03-27T06:40:19.802Z,53.20
2018-03-27T06:41:23.997Z,53.70
2018-03-27T06:42:28.963Z,51.33
2018-03-27T06:43:33.707Z,51.47
2018-03-27T06:44:40.928Z,52.07
2018-03-27T06:45:46.447Z,50.17
2018-03-27T06:46:50.739Z,52.90
2018-03-27T06:47:54.992Z,50.90
2018-03-27T06:48:59.967Z,55.67
2018-03-27T06:50:05.732Z,54.77
2018-03-27T06:51:13.017Z,53.47
2018-03-27T06:52:18.760Z,53.10
2018-03-27T06:53:23.036Z,55.87
2018-03-27T06:54:27.246Z,52.73
2018-03-27T06:55:31.451Z,52.60
2018-03-27T06:56:38.217Z,53.90
2018-03-27T06:57:43.733Z,56.43
2018-03-27T06:58:48.909Z,52.83
2018-03-27T06:59:53.110Z,55.43
2018-03-27T07:00:57.316Z,54.37
2018-03-27T07:02:02.936Z,51.83
2018-03-27T07:03:08.134Z,54.10
2018-03-27T07:04:13.381Z,54.00
2018-03-27T07:05:19.694Z,52.23
2018-03-27T07:06:23.865Z,55.60
2018-03-27T07:07:28.097Z,52.70
2018-03-27T07:08:37.100Z,52.90
2018-03-27T07:09:43.357Z,50.50
2018-03-27T07:10:49.527Z,51.37
2018-03-27T07:11:54.505Z,50.70
2018-03-27T07:12:58.709Z,46.57
2018-03-27T07:14:04.157Z,45.27
2018-03-27T07:15:10.714Z,47.03
2018-03-27T07:16:16.335Z,48.53
2018-03-27T07:17:20.770Z,49.03
2018-03-27T07:18:24.962Z,46.30
2018-03-27T07:19:29.949Z,44.57
2018-03-27T07:20:38.419Z,45.40
2018-03-27T07:21:45.411Z,43.07
2018-03-27T07:22:51.168Z,42.70
2018-03-27T07:23:55.371Z,42.43
2018-03-27T07:24:59.574Z,46.17
2018-03-27T07:26:08.535Z,41.97
2018-03-27T07:27:15.919Z,44.50
2018-03-27T07:28:22.454Z,44.93
2018-03-27T07:29:26.680Z,42.10
2018-03-27T07:30:30.872Z,43.30
2018-03-27T07:31:37.176Z,41.63
2018-03-27T07:32:43.061Z,44.37
2018-03-27T07:33:49.116Z,43.60
2018-03-27T07:34:53.333Z,45.77
2018-03-27T07:35:57.552Z,43.30
2018-03-27T07:37:02.161Z,44.40
2018-03-27T07:38:09.116Z,43.80
2018-03-27T07:39:14.537Z,43.50
2018-03-27T07:40:19.240Z,44.57
2018-03-27T07:41:23.451Z,39.97
2018-03-27T07:42:27.672Z,44.30
2018-03-27T07:43:34.764Z,38.53
2018-03-27T07:44:41.468Z,41.20
2018-03-27T07:45:46.383Z,43.30
2018-03-27T07:46:50.811Z,42.50
2018-03-27T07:47:54.998Z,39.77
2018-03-27T07:48:59.960Z,40.77
2018-03-27T07:50:06.010Z,44.70
2018-03-27T07:51:11.518Z,44.03
2018-03-27T07:52:17.467Z,42.10
2018-03-27T07:53:21.782Z,44.43
2018-03-27T07:54:26.752Z,46.77
2018-03-27T07:55:30.941Z,42.10
2018-03-27T07:56:37.409Z,43.47
2018-03-27T07:57:42.431Z,41.90
2018-03-27T07:58:48.555Z,43.57
2018-03-27T07:59:52.759Z,41.17
2018-03-27T08:00:56.989Z,42.27
2018-03-27T08:02:02.113Z,43.50
2018-03-27T08:03:09.039Z,44.23
2018-03-27T08:04:13.944Z,45.03
2018-03-27T08:05:18.663Z,42.03
2018-03-27T08:06:22.852Z,46.77
2018-03-27T08:07:27.047Z,43.77
2018-03-27T08:08:33.987Z,43.87
2018-03-27T08:09:40.614Z,40.57
2018-03-27T08:10:47.028Z,40.17
2018-03-27T08:11:51.880Z,37.37
2018-03-27T08:12:56.070Z,40.40
2018-03-27T08:14:00.283Z,41.67
2018-03-27T08:15:07.038Z,43.17
2018-03-27T08:16:13.888Z,42.87
2018-03-27T08:17:18.771Z,42.47
2018-03-27T08:18:23.124Z,42.40
2018-03-27T08:19:27.324Z,39.80
2018-03-27T08:20:33.284Z,39.33
2018-03-27T08:21:40.072Z,40.30
2018-03-27T08:22:45.928Z,40.50
2018-03-27T08:23:50.488Z,38.87
2018-03-27T08:24:54.694Z,36.93
2018-03-27T08:25:58.899Z,38.13
2018-03-27T08:27:04.696Z,37.87
2018-03-27T08:28:11.833Z,39.40
2018-03-27T08:29:17.225Z,37.70
2018-03-27T08:30:21.928Z,38.80
2018-03-27T08:31:26.891Z,39.67
2018-03-27T08:32:31.092Z,39.13
2018-03-27T08:33:38.322Z,37.73
2018-03-27T08:34:43.420Z,37.23
2018-03-27T08:35:47.638Z,35.80
2018-03-27T08:36:51.846Z,32.70
2018-03-27T08:37:56.047Z,32.93
2018-03-27T08:39:00.262Z,33.10
2018-03-27T08:40:04.759Z,33.53
2018-03-27T08:41:11.427Z,32.80
2018-03-27T08:42:16.567Z,29.70
2018-03-27T08:43:21.596Z,30.67
2018-03-27T08:44:25.810Z,30.97
2018-03-27T08:45:30.073Z,30.60
2018-03-27T08:46:34.392Z,28.10
2018-03-27T08:47:39.445Z,29.27
2018-03-27T08:48:43.712Z,29.60
2018-03-27T08:49:48.071Z,27.60
2018-03-27T08:50:52.721Z,28.77
2018-03-27T08:51:56.961Z,26.17
2018-03-27T08:53:01.947Z,27.47
2018-03-27T08:54:07.206Z,28.50
2018-03-27T08:55:12.333Z,26.67
2018-03-27T08:56:16.611Z,29.30
2018-03-27T08:57:21.710Z,28.97
2018-03-27T08:58:25.918Z,28.40
2018-03-27T08:59:30.124Z,28.20
2018-03-27T09:00:37.368Z,27.57
2018-03-27T09:01:43.960Z,29.63
2018-03-27T09:02:48.154Z,27.03
2018-03-27T09:03:52.389Z,29.40
2018-03-27T09:04:56.593Z,26.83
2018-03-27T09:06:00.795Z,26.30
2018-03-27T09:07:09.163Z,28.40
2018-03-27T09:08:14.618Z,28.27
2018-03-27T09:09:18.887Z,27.10
2018-03-27T09:10:23.074Z,29.00
2018-03-27T09:11:27.276Z,26.33
2018-03-27T09:12:31.503Z,25.43
2018-03-27T09:13:38.061Z,22.43
2018-03-27T09:14:43.307Z,19.90
2018-03-27T09:15:47.641Z,22.57
2018-03-27T09:16:52.628Z,21.47
2018-03-27T09:17:56.852Z,22.40
2018-03-27T09:19:01.042Z,21.13
2018-03-27T09:20:05.888Z,21.80
2018-03-27T09:21:11.526Z,21.87
2018-03-27T09:22:16.045Z,17.10
2018-03-27T09:23:20.374Z,18.20
2018-03-27T09:24:24.552Z,18.13
2018-03-27T09:25:28.742Z,18.27
2018-03-27T09:26:34.729Z,18.93
2018-03-27T09:27:42.007Z,19.00
2018-03-27T09:28:47.206Z,18.80
2018-03-27T09:29:51.469Z,20.90
2018-03-27T09:30:57.166Z,19.50
2018-03-27T09:32:01.457Z,21.13
2018-03-27T09:33:09.592Z,19.47
2018-03-27T09:34:15.020Z,19.37
2018-03-27T09:35:19.283Z,18.83
2018-03-27T09:36:23.489Z,18.73
2018-03-27T09:37:27.684Z,18.30
2018-03-27T09:38:32.735Z,18.23
2018-03-27T09:39:38.751Z,16.83
2018-03-27T09:40:45.675Z,15.10
2018-03-27T09:41:50.799Z,16.37
2018-03-27T09:42:55.783Z,15.90
2018-03-27T09:43:59.986Z,15.00
2018-03-27T09:45:09.478Z,15.40
2018-03-27T09:46:18.876Z,15.23
2018-03-27T09:47:23.324Z,16.83
2018-03-27T09:48:29.038Z,17.73
2018-03-27T09:49:35.008Z,13.70
2018-03-27T09:50:41.907Z,13.53
2018-03-27T09:51:49.180Z,11.43
2018-03-27T09:52:54.177Z,11.83
2018-03-27T09:53:58.396Z,12.53
2018-03-27T09:55:03.690Z,11.83
2018-03-27T09:56:11.087Z,12.70
2018-03-27T09:57:17.084Z,12.90
2018-03-27T09:58:21.459Z,14.30
2018-03-27T09:59:25.697Z,14.90
2018-03-27T10:00:35.822Z,13.17
2018-03-27T10:01:43.733Z,14.77
2018-03-27T10:02:50.818Z,16.00
2018-03-27T10:03:55.043Z,15.67
2018-03-27T10:04:59.260Z,18.90
2018-03-27T10:06:05.963Z,17.80
2018-03-27T10:07:11.729Z,19.50
2018-03-27T10:08:18.024Z,19.60
2018-03-27T10:09:22.662Z,21.07
2018-03-27T10:10:27.640Z,20.23
2018-03-27T10:11:32.684Z,20.37
2018-03-27T10:12:39.998Z,19.90
2018-03-27T10:13:46.865Z,18.83
2018-03-27T10:14:51.507Z,18.80
2018-03-27T10:15:55.760Z,20.40
2018-03-27T10:16:59.954Z,19.17
2018-03-27T10:18:07.791Z,19.60
2018-03-27T10:19:13.431Z,18.00
2018-03-27T10:20:19.621Z,17.97
2018-03-27T10:21:23.825Z,16.80
2018-03-27T10:22:28.023Z,15.83
2018-03-27T10:23:33.885Z,16.07
2018-03-27T10:24:40.823Z,14.20
2018-03-27T10:25:46.239Z,13.40
2018-03-27T10:26:50.990Z,15.50
2018-03-27T10:27:55.208Z,15.07
2018-03-27T10:28:59.423Z,15.07
2018-03-27T10:30:06.262Z,13.70
2018-03-27T10:31:12.578Z,14.40
2018-03-27T10:32:18.888Z,15.37
2018-03-27T10:33:23.441Z,14.47
2018-03-27T10:34:27.660Z,14.33
2018-03-27T10:35:32.207Z,16.00
2018-03-27T10:36:38.131Z,14.77
2018-03-27T10:37:43.133Z,14.73
2018-03-27T10:38:49.437Z,15.53
2018-03-27T10:39:53.746Z,15.50
2018-03-27T10:40:57.985Z,15.73
2018-03-27T10:42:03.460Z,16.40
2018-03-27T10:43:11.558Z,16.73
2018-03-27T10:44:20.043Z,14.93
2018-03-27T10:45:24.306Z,14.83
2018-03-27T10:46:28.525Z,14.57
2018-03-27T10:47:36.082Z,13.53
2018-03-27T10:48:41.669Z,15.07
2018-03-27T10:49:47.739Z,12.23
2018-03-27T10:50:52.537Z,13.43
2018-03-27T10:51:56.803Z,13.53
2018-03-27T10:53:01.085Z,13.90
2018-03-27T10:54:10.196Z,14.00
2018-03-27T10:55:16.422Z,15.27
2018-03-27T10:56:21.763Z,14.40
2018-03-27T10:57:26.088Z,13.90
2018-03-27T10:58:30.289Z,15.73
2018-03-27T10:59:37.486Z,14.70
2018-03-27T11:00:45.665Z,14.63
2018-03-27T11:01:51.097Z,14.40
2018-03-27T11:02:55.712Z,14.20
2018-03-27T11:03:59.967Z,14.70
2018-03-27T11:05:06.991Z,16.17
2018-03-27T11:06:12.826Z,15.33
2018-03-27T11:07:19.970Z,15.57
2018-03-27T11:08:24.984Z,15.03
2018-03-27T11:09:29.562Z,14.70
2018-03-27T11:10:35.506Z,14.80
2018-03-27T11:11:41.193Z,13.43
2018-03-27T11:12:47.597Z,13.70
2018-03-27T11:13:52.211Z,14.73
2018-03-27T11:14:56.472Z,13.67
2018-03-27T11:16:01.069Z,13.70
2018-03-27T11:17:08.084Z,14.63
2018-03-27T11:18:13.617Z,12.80
2018-03-27T11:19:19.447Z,13.70
2018-03-27T11:20:23.696Z,13.40
2018-03-27T11:21:28.380Z,11.80
2018-03-27T11:22:34.358Z,12.87
2018-03-27T11:23:41.218Z,12.70
2018-03-27T11:24:48.468Z,12.43
2018-03-27T11:25:52.751Z,13.60
2018-03-27T11:26:57.016Z,14.20
2018-03-27T11:28:01.235Z,12.90
2018-03-27T11:29:10.230Z,13.27
2018-03-27T11:30:16.844Z,12.50
2018-03-27T11:31:21.664Z,13.10
2018-03-27T11:32:26.286Z,10.60
2018-03-27T11:33:30.500Z,12.10
2018-03-27T11:34:38.516Z,13.43
2018-03-27T11:35:44.439Z,11.47
2018-03-27T11:36:50.539Z,12.87
2018-03-27T11:37:55.557Z,11.90
2018-03-27T11:39:00.556Z,11.57
2018-03-27T11:40:07.353Z,12.47
2018-03-27T11:41:12.762Z,12.70
2018-03-27T11:42:18.501Z,13.57
2018-03-27T11:43:24.130Z,13.80
2018-03-27T11:44:28.339Z,11.63
2018-03-27T11:45:33.676Z,12.13
2018-03-27T11:46:39.936Z,13.57
2018-03-27T11:47:47.178Z,10.67
2018-03-27T11:48:52.061Z,12.00
2018-03-27T11:49:56.267Z,13.83
2018-03-27T11:51:00.489Z,13.20
2018-03-27T11:52:07.303Z,12.90
2018-03-27T11:53:13.121Z,13.37
2018-03-27T11:54:18.549Z,13.03
2018-03-27T11:55:22.760Z,11.90
2018-03-27T11:56:26.961Z,12.00
2018-03-27T11:57:31.266Z,12.47
2018-03-27T11:58:39.459Z,12.37
2018-03-27T11:59:44.516Z,12.27
2018-03-27T12:00:49.245Z,12.50
2018-03-27T12:01:53.483Z,13.33
2018-03-27T12:02:57.691Z,12.97
2018-03-27T12:04:02.266Z,13.07
2018-03-27T12:05:07.475Z,13.20
2018-03-27T12:06:15.115Z,13.03
2018-03-27T12:07:20.269Z,12.83
2018-03-27T12:08:24.514Z,13.10
2018-03-27T12:09:28.746Z,12.90
2018-03-27T12:10:33.896Z,13.63
2018-03-27T12:11:40.252Z,14.60
2018-03-27T12:12:46.114Z,13.90
2018-03-27T12:13:50.498Z,14.80
2018-03-27T12:14:54.718Z,14.23
2018-03-27T12:15:58.972Z,12.80
2018-03-27T12:17:05.395Z,12.37
2018-03-27T12:18:11.340Z,11.67
2018-03-27T12:19:17.815Z,11.40
2018-03-27T12:20:22.131Z,11.13
2018-03-27T12:21:26.323Z,13.50
2018-03-27T12:22:30.598Z,11.90
2018-03-27T12:23:36.898Z,12.50
2018-03-27T12:24:42.482Z,13.43
2018-03-27T12:25:49.313Z,11.93
2018-03-27T12:26:53.540Z,11.90
2018-03-27T12:27:57.756Z,12.03
2018-03-27T12:29:02.864Z,11.30
2018-03-27T12:30:10.809Z,12.00
2018-03-27T12:31:16.830Z,11.90
2018-03-27T12:32:21.360Z,11.40
2018-03-27T12:33:25.599Z,11.63
2018-03-27T12:34:29.817Z,10.90
2018-03-27T12:35:38.433Z,13.00
2018-03-27T12:36:43.406Z,11.30
2018-03-27T12:37:48.816Z,11.13
2018-03-27T12:38:53.056Z,12.20
2018-03-27T12:39:57.662Z,10.73
2018-03-27T12:41:02.378Z,10.80
2018-03-27T12:42:10.109Z,11.37
2018-03-27T12:43:16.832Z,9.93
2018-03-27T12:44:21.301Z,12.17
2018-03-27T12:45:25.582Z,11.83
2018-03-27T12:46:29.800Z,11.33
2018-03-27T12:47:35.848Z,11.93
2018-03-27T12:48:43.253Z,12.07
2018-03-27T12:49:49.959Z,11.20
2018-03-27T12:50:55.011Z,11.03
2018-03-27T12:51:59.984Z,11.17
2018-03-27T12:53:06.804Z,11.73
2018-03-27T12:54:12.423Z,10.77
2018-03-27T12:55:18.922Z,12.60
2018-03-27T12:56:23.562Z,12.40
2018-03-27T12:57:27.776Z,10.83
2018-03-27T12:58:32.588Z,11.10
2018-03-27T12:59:40.308Z,10.77
2018-03-27T13:00:46.866Z,10.20
2018-03-27T13:01:51.144Z,9.93
2018-03-27T13:02:56.118Z,12.37
2018-03-27T13:04:00.329Z,11.43
2018-03-27T13:05:07.622Z,11.47
2018-03-27T13:06:13.012Z,11.70
2018-03-27T13:07:19.100Z,10.53
2018-03-27T13:08:23.421Z,9.70
2018-03-27T13:09:27.630Z,11.00
2018-03-27T13:10:31.985Z,9.83
2018-03-27T13:11:39.689Z,10.50
2018-03-27T13:12:47.250Z,10.30
2018-03-27T13:13:51.652Z,10.20
2018-03-27T13:14:55.931Z,10.77
2018-03-27T13:16:00.141Z,11.00
2018-03-27T13:17:06.845Z,10.77
2018-03-27T13:18:13.937Z,11.20
2018-03-27T13:19:19.483Z,11.63
2018-03-27T13:20:24.068Z,11.33
2018-03-27T13:21:28.289Z,11.60
2018-03-27T13:22:35.267Z,10.43
2018-03-27T13:23:42.388Z,12.00
2018-03-27T13:24:47.751Z,11.57
2018-03-27T13:25:52.465Z,11.47
2018-03-27T13:26:56.696Z,11.50
2018-03-27T13:28:00.918Z,10.87
2018-03-27T13:29:08.535Z,10.63
2018-03-27T13:30:13.710Z,11.13
2018-03-27T13:31:19.769Z,11.90
2018-03-27T13:32:24.085Z,10.67
2018-03-27T13:33:28.253Z,10.73
2018-03-27T13:34:33.708Z,12.03
2018-03-27T13:35:40.116Z,9.73
2018-03-27T13:36:45.493Z,11.30
2018-03-27T13:37:50.832Z,10.70
2018-03-27T13:38:55.095Z,10.17
2018-03-27T13:40:00.028Z,11.43
2018-03-27T13:41:07.578Z,10.70
2018-03-27T13:42:13.772Z,10.53
2018-03-27T13:43:19.343Z,10.20
2018-03-27T13:44:23.586Z,10.63
2018-03-27T13:45:28.588Z,10.47
2018-03-27T13:46:33.941Z,11.40
2018-03-27T13:47:42.303Z,11.30
2018-03-27T13:48:49.749Z,10.10
2018-03-27T13:49:54.024Z,9.97
2018-03-27T13:50:58.236Z,10.07
2018-03-27T13:52:03.803Z,9.93
2018-03-27T13:53:10.245Z,10.90
2018-03-27T13:54:15.905Z,11.47
2018-03-27T13:55:20.611Z,9.50
2018-03-27T13:56:24.818Z,10.17
2018-03-27T13:57:29.043Z,11.23
2018-03-27T13:58:33.950Z,10.47
2018-03-27T13:59:40.389Z,9.43
2018-03-27T14:00:46.487Z,10.70
2018-03-27T14:01:50.835Z,10.73
2018-03-27T14:02:55.064Z,10.67
2018-03-27T14:03:59.270Z,11.23
2018-03-27T14:05:04.505Z,10.17
2018-03-27T14:06:10.416Z,10.63
2018-03-27T14:07:15.706Z,10.60
2018-03-27T14:08:20.281Z,10.40
2018-03-27T14:09:25.264Z,10.87
2018-03-27T14:10:29.517Z,11.90
2018-03-27T14:11:35.697Z,11.27